Time;durP1;ratioP1;P1;durP2;ratioP2;P2;SDS_P1;SDS_P2;PMS_P1;PMS_P2;Temp;Humidity;BMP_temperature;BMP_pressure;BME280_temperature;BME280_humidity;BME280_pressure;Samples;Min_cycle;Max_cycle;Signal;HPM_P1;HPM_P2
2023/04/06 00:00:37;;;;;;;0.70;0.70;;;;;;;;;;5079830;28;20221;-84
2023/04/06 00:03:03;;;;;;;0.80;0.80;;;;;;;;;;5079790;28;20255;-84
2023/04/06 00:05:30;;;;;;;0.70;0.70;;;;;;;;;;5079362;28;20210;-84
2023/04/06 00:07:57;;;;;;;0.90;0.90;;;;;;;;;;5079634;28;20209;-85
2023/04/06 00:10:23;;;;;;;1.00;1.00;;;;;;;;;;5079366;28;20271;-84
2023/04/06 00:12:49;;;;;;;0.80;0.80;;;;;;;;;;5079105;28;20687;-85
2023/04/06 00:15:15;;;;;;;0.80;0.80;;;;;;;;;;5080608;28;20257;-85
2023/04/06 00:17:41;;;;;;;0.90;0.90;;;;;;;;;;5081006;28;20178;-83
2023/04/06 00:20:08;;;;;;;0.90;0.90;;;;;;;;;;5080719;28;20548;-83
2023/04/06 00:22:34;;;;;;;0.90;0.90;;;;;;;;;;5079873;28;21015;-84
2023/04/06 00:25:00;;;;;;;0.80;0.80;;;;;;;;;;5079166;28;20217;-84
2023/04/06 00:27:26;;;;;;;0.80;0.80;;;;;;;;;;5079586;28;20182;-84
2023/04/06 00:29:52;;;;;;;0.87;0.87;;;;;;;;;;5080081;28;20171;-85
2023/04/06 00:32:18;;;;;;;0.90;0.90;;;;;;;;;;5079385;28;20204;-84
2023/04/06 00:34:44;;;;;;;0.90;0.90;;;;;;;;;;5079833;28;20200;-84
2023/04/06 00:37:11;;;;;;;0.90;0.90;;;;;;;;;;5079574;28;20182;-84
2023/04/06 00:39:37;;;;;;;0.90;0.90;;;;;;;;;;5079297;28;20225;-83
2023/04/06 00:42:08;;;;;;;0.80;0.80;;;;;;;;;;5080204;28;20218;-84
2023/04/06 00:44:34;;;;;;;0.70;0.70;;;;;;;;;;5080021;28;20247;-84
2023/04/06 00:47:00;;;;;;;0.80;0.80;;;;;;;;;;5079303;28;20182;-83
2023/04/06 00:49:26;;;;;;;0.90;0.90;;;;;;;;;;5080020;28;20181;-83
2023/04/06 00:51:53;;;;;;;0.80;0.80;;;;;;;;;;5080000;28;20182;-84
2023/04/06 00:54:19;;;;;;;0.90;0.90;;;;;;;;;;5079895;28;20201;-83
2023/04/06 00:56:45;;;;;;;1.00;1.00;;;;;;;;;;5080537;28;20185;-84
2023/04/06 00:59:11;;;;;;;0.90;0.90;;;;;;;;;;5080980;28;20542;-84
2023/04/06 01:01:37;;;;;;;0.90;0.90;;;;;;;;;;5081398;28;20210;-84
2023/04/06 01:04:03;;;;;;;0.80;0.80;;;;;;;;;;5080470;28;20198;-83
2023/04/06 01:06:29;;;;;;;0.90;0.90;;;;;;;;;;5082125;28;20258;-84
2023/04/06 01:08:56;;;;;;;0.80;0.80;;;;;;;;;;5081596;28;20187;-84
2023/04/06 01:11:22;;;;;;;0.90;0.90;;;;;;;;;;5079715;28;20174;-83
2023/04/06 01:13:48;;;;;;;0.97;0.97;;;;;;;;;;5078798;28;20205;-83
2023/04/06 01:16:14;;;;;;;0.90;0.90;;;;;;;;;;5079914;28;20182;-84
2023/04/06 01:18:41;;;;;;;0.97;0.97;;;;;;;;;;5080273;28;20208;-84
2023/04/06 01:21:08;;;;;;;0.90;0.90;;;;;;;;;;5079918;28;20725;-84
2023/04/06 01:23:35;;;;;;;0.90;0.90;;;;;;;;;;5080476;28;20198;-84
2023/04/06 01:26:01;;;;;;;0.93;0.93;;;;;;;;;;5082548;28;20190;-84
2023/04/06 01:28:27;;;;;;;0.90;0.90;;;;;;;;;;5083220;28;20183;-83
2023/04/06 01:30:53;;;;;;;0.90;0.90;;;;;;;;;;5092998;28;20246;-85
2023/04/06 01:33:19;;;;;;;0.90;0.90;;;;;;;;;;5094160;28;20209;-81
2023/04/06 01:35:45;;;;;;;0.80;0.80;;;;;;;;;;5093756;28;20186;-83
2023/04/06 01:38:11;;;;;;;0.80;0.80;;;;;;;;;;5093465;28;20190;-84
2023/04/06 01:40:38;;;;;;;0.80;0.80;;;;;;;;;;5093987;28;20222;-84
2023/04/06 01:43:04;;;;;;;0.90;0.90;;;;;;;;;;5093175;28;20196;-84
2023/04/06 01:45:30;;;;;;;0.90;0.90;;;;;;;;;;5093990;28;20167;-84
2023/04/06 01:47:56;;;;;;;0.80;0.80;;;;;;;;;;5093356;28;20179;-83
2023/04/06 01:50:23;;;;;;;0.90;0.90;;;;;;;;;;5090854;28;20200;-84
2023/04/06 01:52:49;;;;;;;0.90;0.90;;;;;;;;;;5079276;28;20199;-84
2023/04/06 01:55:15;;;;;;;0.83;0.83;;;;;;;;;;5079251;28;20190;-84
2023/04/06 01:57:41;;;;;;;1.00;1.00;;;;;;;;;;5079107;28;20194;-83
2023/04/06 02:00:08;;;;;;;0.90;0.90;;;;;;;;;;5080068;28;20189;-84
2023/04/06 02:02:34;;;;;;;0.83;0.83;;;;;;;;;;5080402;28;20204;-84
2023/04/06 02:05:00;;;;;;;0.90;0.90;;;;;;;;;;5081997;28;20187;-84
2023/04/06 02:07:26;;;;;;;0.90;0.90;;;;;;;;;;5080100;28;20178;-84
2023/04/06 02:09:55;;;;;;;0.87;0.87;;;;;;;;;;5080126;28;20189;-84
2023/04/06 02:12:21;;;;;;;0.80;0.80;;;;;;;;;;5080995;28;20178;-84
2023/04/06 02:14:47;;;;;;;0.90;0.90;;;;;;;;;;5080975;28;20216;-84
2023/04/06 02:17:13;;;;;;;0.80;0.80;;;;;;;;;;5082138;28;20665;-84
2023/04/06 02:19:39;;;;;;;0.90;0.90;;;;;;;;;;5082258;28;20174;-84
2023/04/06 02:22:05;;;;;;;0.90;0.90;;;;;;;;;;5082509;28;20236;-84
2023/04/06 02:24:31;;;;;;;0.90;0.90;;;;;;;;;;5082076;28;20194;-84
2023/04/06 02:26:56;;;;;;;0.90;0.90;;;;;;;;;;5080957;28;20182;-83
2023/04/06 02:29:22;;;;;;;0.80;0.80;;;;;;;;;;5077352;28;20559;-83
2023/04/06 02:31:49;;;;;;;0.90;0.90;;;;;;;;;;5076673;28;20185;-84
2023/04/06 02:34:17;;;;;;;0.93;0.93;;;;;;;;;;5076068;28;20198;-84
2023/04/06 02:36:44;;;;;;;0.80;0.80;;;;;;;;;;5076174;28;20260;-83
2023/04/06 02:39:10;;;;;;;0.90;0.90;;;;;;;;;;5075280;28;20236;-84
2023/04/06 02:41:36;;;;;;;0.90;0.90;;;;;;;;;;5075746;28;20589;-84
2023/04/06 02:44:03;;;;;;;0.80;0.80;;;;;;;;;;5075091;28;20194;-83
2023/04/06 02:46:29;;;;;;;0.80;0.80;;;;;;;;;;5076045;28;20176;-83
2023/04/06 02:48:56;;;;;;;0.90;0.90;;;;;;;;;;5074264;28;20179;-84
2023/04/06 02:51:22;;;;;;;0.90;0.90;;;;;;;;;;5076255;28;20177;-83
2023/04/06 02:53:48;;;;;;;0.80;0.80;;;;;;;;;;5081193;28;20230;-83
2023/04/06 02:56:14;;;;;;;0.80;0.80;;;;;;;;;;5095972;28;20185;-84
2023/04/06 02:58:40;;;;;;;0.80;0.80;;;;;;;;;;5091492;28;20178;-84
2023/04/06 03:01:06;;;;;;;0.90;0.90;;;;;;;;;;5082527;28;20251;-84
2023/04/06 03:03:32;;;;;;;0.80;0.80;;;;;;;;;;5084845;28;20203;-83
2023/04/06 03:05:59;;;;;;;0.80;0.80;;;;;;;;;;5095986;28;20178;-85
2023/04/06 03:08:25;;;;;;;0.70;0.70;;;;;;;;;;5095301;28;20181;-84
2023/04/06 03:10:51;;;;;;;0.90;0.90;;;;;;;;;;5091908;28;20178;-84
2023/04/06 03:13:17;;;;;;;1.00;1.00;;;;;;;;;;5082413;28;20194;-85
2023/04/06 03:15:43;;;;;;;0.80;0.80;;;;;;;;;;5078789;28;20185;-84
2023/04/06 03:18:09;;;;;;;0.80;0.80;;;;;;;;;;5077644;28;20170;-84
2023/04/06 03:20:35;;;;;;;0.83;0.83;;;;;;;;;;5077341;28;20239;-84
2023/04/06 03:23:01;;;;;;;0.80;0.80;;;;;;;;;;5076354;28;20669;-84
2023/04/06 03:25:27;;;;;;;0.80;0.80;;;;;;;;;;5076581;28;20181;-83
2023/04/06 03:27:54;;;;;;;0.90;0.90;;;;;;;;;;5076453;28;20201;-84
2023/04/06 03:30:19;;;;;;;0.80;0.80;;;;;;;;;;5077108;28;20174;-85
2023/04/06 03:32:45;;;;;;;0.80;0.80;;;;;;;;;;5075862;28;20220;-84
2023/04/06 03:35:12;;;;;;;0.87;0.87;;;;;;;;;;5076088;28;20171;-83
2023/04/06 03:37:38;;;;;;;0.80;0.80;;;;;;;;;;5075620;28;20183;-84
2023/04/06 03:40:04;;;;;;;1.00;1.00;;;;;;;;;;5075747;28;20185;-85
2023/04/06 03:42:32;;;;;;;0.80;0.80;;;;;;;;;;5075913;28;20186;-84
2023/04/06 03:44:58;;;;;;;0.90;0.90;;;;;;;;;;5076695;28;20573;-84
2023/04/06 03:47:24;;;;;;;0.90;0.90;;;;;;;;;;5076041;28;20178;-84
2023/04/06 03:49:50;;;;;;;0.90;0.90;;;;;;;;;;5076007;28;20178;-84
2023/04/06 03:52:16;;;;;;;0.87;0.87;;;;;;;;;;5075943;28;20179;-84
2023/04/06 03:54:42;;;;;;;0.90;0.90;;;;;;;;;;5075302;28;20190;-84
2023/04/06 03:57:08;;;;;;;0.90;0.90;;;;;;;;;;5075184;28;20185;-84
2023/04/06 03:59:35;;;;;;;0.90;0.90;;;;;;;;;;5075454;28;20181;-84
2023/04/06 04:02:01;;;;;;;0.90;0.90;;;;;;;;;;5076523;28;20213;-84
2023/04/06 04:04:27;;;;;;;0.70;0.70;;;;;;;;;;5078299;28;20199;-84
2023/04/06 04:06:53;;;;;;;0.80;0.80;;;;;;;;;;5078782;28;20661;-84
2023/04/06 04:09:19;;;;;;;0.80;0.80;;;;;;;;;;5079152;28;20629;-84
2023/04/06 04:11:45;;;;;;;0.80;0.80;;;;;;;;;;5079326;28;20243;-84
2023/04/06 04:14:11;;;;;;;0.80;0.80;;;;;;;;;;5079730;28;20198;-84
2023/04/06 04:16:39;;;;;;;0.83;0.83;;;;;;;;;;5078403;28;20207;-83
2023/04/06 04:19:05;;;;;;;0.90;0.90;;;;;;;;;;5078612;28;20198;-84
2023/04/06 04:21:31;;;;;;;0.90;0.90;;;;;;;;;;5080044;28;20264;-84
2023/04/06 04:23:57;;;;;;;0.90;0.90;;;;;;;;;;5080101;28;20198;-84
2023/04/06 04:26:23;;;;;;;0.90;0.90;;;;;;;;;;5079426;28;20181;-85
2023/04/06 04:28:49;;;;;;;0.90;0.90;;;;;;;;;;5079834;28;20209;-84
2023/04/06 04:31:17;;;;;;;0.90;0.90;;;;;;;;;;5081231;28;20175;-85
2023/04/06 04:33:44;;;;;;;0.90;0.90;;;;;;;;;;5080992;28;20221;-84
2023/04/06 04:36:10;;;;;;;0.90;0.90;;;;;;;;;;5079964;28;20184;-84
2023/04/06 04:38:36;;;;;;;0.90;0.90;;;;;;;;;;5080402;28;20194;-85
2023/04/06 04:41:02;;;;;;;0.83;0.83;;;;;;;;;;5081332;28;20218;-85
2023/04/06 04:43:28;;;;;;;0.90;0.90;;;;;;;;;;5078127;28;20201;-84
2023/04/06 04:45:54;;;;;;;0.90;0.90;;;;;;;;;;5077282;28;20182;-85
2023/04/06 04:48:20;;;;;;;1.00;1.00;;;;;;;;;;5078033;28;20174;-85
2023/04/06 04:50:46;;;;;;;0.90;0.90;;;;;;;;;;5078037;28;20186;-85
2023/04/06 04:53:12;;;;;;;0.90;0.90;;;;;;;;;;5078511;28;20205;-84
2023/04/06 04:55:38;;;;;;;0.90;0.90;;;;;;;;;;5078811;28;20265;-84
2023/04/06 04:58:04;;;;;;;1.00;1.00;;;;;;;;;;5080570;28;20202;-85
2023/04/06 05:00:31;;;;;;;0.90;0.90;;;;;;;;;;5078907;28;20209;-84
2023/04/06 05:02:57;;;;;;;0.90;0.90;;;;;;;;;;5079375;28;20612;-85
2023/04/06 05:05:23;;;;;;;0.90;0.90;;;;;;;;;;5078477;28;20702;-85
2023/04/06 05:07:49;;;;;;;0.87;0.87;;;;;;;;;;5081457;28;20182;-85
2023/04/06 05:10:15;;;;;;;0.90;0.90;;;;;;;;;;5082151;28;20204;-85
2023/04/06 05:12:41;;;;;;;0.90;0.90;;;;;;;;;;5079129;28;20204;-84
2023/04/06 05:15:07;;;;;;;0.80;0.80;;;;;;;;;;5065448;28;20179;-84
2023/04/06 05:17:34;;;;;;;0.90;0.90;;;;;;;;;;5058917;28;20560;-85
2023/04/06 05:20:00;;;;;;;0.90;0.90;;;;;;;;;;5058629;28;20175;-85
2023/04/06 05:22:26;;;;;;;0.90;0.90;;;;;;;;;;5059929;28;20265;-85
2023/04/06 05:24:52;;;;;;;0.90;0.90;;;;;;;;;;5060758;28;20585;-84
2023/04/06 05:27:18;;;;;;;0.83;0.83;;;;;;;;;;5060794;28;20179;-84
2023/04/06 05:29:44;;;;;;;0.80;0.80;;;;;;;;;;5061098;28;20190;-84
2023/04/06 05:32:10;;;;;;;0.87;0.87;;;;;;;;;;5060725;28;20202;-84
2023/04/06 05:34:37;;;;;;;0.93;0.93;;;;;;;;;;5060987;28;20674;-84
2023/04/06 05:37:03;;;;;;;0.90;0.90;;;;;;;;;;5057375;28;20179;-88
2023/04/06 05:39:29;;;;;;;0.90;0.90;;;;;;;;;;5058520;28;20190;-86
2023/04/06 05:41:56;;;;;;;0.83;0.83;;;;;;;;;;5057581;28;20207;-86
2023/04/06 05:44:22;;;;;;;0.80;0.80;;;;;;;;;;5059747;28;20202;-85
2023/04/06 05:46:48;;;;;;;0.90;0.90;;;;;;;;;;5065772;28;20179;-85
2023/04/06 05:49:14;;;;;;;0.80;0.80;;;;;;;;;;5072066;28;20171;-86
2023/04/06 05:51:40;;;;;;;0.90;0.90;;;;;;;;;;5074296;28;20205;-85
2023/04/06 05:54:06;;;;;;;0.80;0.80;;;;;;;;;;5069023;28;20199;-86
2023/04/06 05:56:32;;;;;;;0.90;0.90;;;;;;;;;;5057241;28;20212;-85
2023/04/06 05:58:58;;;;;;;0.80;0.80;;;;;;;;;;5056924;28;20266;-85
2023/04/06 06:01:24;;;;;;;0.90;0.90;;;;;;;;;;5058380;28;20657;-83
2023/04/06 06:03:50;;;;;;;0.83;0.83;;;;;;;;;;5060924;28;20285;-83
2023/04/06 06:06:16;;;;;;;0.90;0.90;;;;;;;;;;5077215;28;20190;-83
2023/04/06 06:08:42;;;;;;;0.80;0.80;;;;;;;;;;5076506;28;20227;-83
2023/04/06 06:11:08;;;;;;;0.87;0.87;;;;;;;;;;5070799;28;20633;-86
2023/04/06 06:13:34;;;;;;;0.80;0.80;;;;;;;;;;5073774;28;20205;-85
2023/04/06 06:16:00;;;;;;;0.70;0.70;;;;;;;;;;5077015;28;20182;-85
2023/04/06 06:18:26;;;;;;;0.80;0.80;;;;;;;;;;5069514;28;20328;-86
2023/04/06 06:20:52;;;;;;;0.90;0.90;;;;;;;;;;5075333;28;20589;-85
2023/04/06 06:23:18;;;;;;;0.87;0.87;;;;;;;;;;5075524;28;20236;-85
2023/04/06 06:25:44;;;;;;;0.87;0.87;;;;;;;;;;5065849;28;20182;-84
2023/04/06 06:28:10;;;;;;;0.80;0.80;;;;;;;;;;5074353;28;20247;-84
2023/04/06 06:30:36;;;;;;;0.80;0.80;;;;;;;;;;5073327;28;20254;-84
2023/04/06 06:33:03;;;;;;;0.90;0.90;;;;;;;;;;5069866;28;20265;-85
2023/04/06 06:35:29;;;;;;;0.80;0.80;;;;;;;;;;5078976;28;20182;-84
2023/04/06 06:37:55;;;;;;;0.90;0.90;;;;;;;;;;5079207;28;20186;-85
2023/04/06 06:40:23;;;;;;;0.80;0.80;;;;;;;;;;5087802;28;20174;-86
2023/04/06 06:42:50;;;;;;;0.80;0.80;;;;;;;;;;5094464;28;20159;-84
2023/04/06 06:45:16;;;;;;;0.80;0.80;;;;;;;;;;5077140;28;20171;-85
2023/04/06 06:47:42;;;;;;;0.80;0.80;;;;;;;;;;5075420;28;20198;-84
2023/04/06 06:50:08;;;;;;;0.90;0.90;;;;;;;;;;5077007;28;20178;-86
2023/04/06 06:52:34;;;;;;;0.80;0.80;;;;;;;;;;5075651;28;20208;-84
2023/04/06 06:55:01;;;;;;;0.80;0.80;;;;;;;;;;5070762;28;20178;-84
2023/04/06 06:57:27;;;;;;;0.90;0.90;;;;;;;;;;5060485;28;20266;-82
2023/04/06 06:59:53;;;;;;;0.73;0.73;;;;;;;;;;5074391;28;20170;-82
2023/04/06 07:02:19;;;;;;;0.80;0.80;;;;;;;;;;5075587;28;20225;-82
2023/04/06 07:04:48;;;;;;;0.80;0.80;;;;;;;;;;5064173;28;20681;-86
2023/04/06 07:07:14;;;;;;;0.90;0.90;;;;;;;;;;5072955;28;20174;-85
2023/04/06 07:09:40;;;;;;;0.90;0.90;;;;;;;;;;5076873;28;20265;-85
2023/04/06 07:12:06;;;;;;;0.80;0.80;;;;;;;;;;5069268;28;20270;-87
2023/04/06 07:14:32;;;;;;;0.80;0.80;;;;;;;;;;5055996;28;20207;-86
2023/04/06 07:16:58;;;;;;;0.80;0.80;;;;;;;;;;5055769;28;20175;-84
2023/04/06 07:19:24;;;;;;;0.90;0.90;;;;;;;;;;5056829;28;20186;-86
2023/04/06 07:21:50;;;;;;;0.83;0.83;;;;;;;;;;5057099;28;20210;-85
2023/04/06 07:24:16;;;;;;;0.70;0.70;;;;;;;;;;5055650;28;20662;-85
2023/04/06 07:26:43;;;;;;;0.63;0.63;;;;;;;;;;5055857;28;20179;-85
2023/04/06 07:29:09;;;;;;;0.60;0.60;;;;;;;;;;5056517;28;20238;-85
2023/04/06 07:31:35;;;;;;;0.60;0.60;;;;;;;;;;5057072;28;20293;-83
2023/04/06 07:34:01;;;;;;;0.70;0.70;;;;;;;;;;5060520;28;20203;-85
2023/04/06 07:36:27;;;;;;;0.60;0.60;;;;;;;;;;5060690;28;20170;-83
2023/04/06 07:38:54;;;;;;;0.60;0.60;;;;;;;;;;5076012;28;20247;-82
2023/04/06 07:41:20;;;;;;;0.50;0.50;;;;;;;;;;5073258;28;20210;-83
2023/04/06 07:43:46;;;;;;;0.60;0.60;;;;;;;;;;5070149;28;20202;-82
2023/04/06 07:46:12;;;;;;;0.60;0.60;;;;;;;;;;5060604;28;20187;-84
2023/04/06 07:48:38;;;;;;;0.50;0.50;;;;;;;;;;5059578;28;20652;-83
2023/04/06 07:51:06;;;;;;;0.50;0.50;;;;;;;;;;5060383;28;20237;-83
2023/04/06 07:53:32;;;;;;;0.60;0.60;;;;;;;;;;5065711;28;20194;-85
2023/04/06 07:55:59;;;;;;;0.40;0.40;;;;;;;;;;5079871;28;20205;-83
2023/04/06 07:58:25;;;;;;;0.40;0.40;;;;;;;;;;5083349;28;20663;-83
2023/04/06 08:00:51;;;;;;;0.50;0.50;;;;;;;;;;5083266;28;20683;-81
2023/04/06 08:03:20;;;;;;;0.37;0.37;;;;;;;;;;5074551;28;20183;-85
2023/04/06 08:05:46;;;;;;;0.30;0.30;;;;;;;;;;5081647;28;20186;-85
2023/04/06 08:08:12;;;;;;;0.40;0.40;;;;;;;;;;5082356;28;20166;-83
2023/04/06 08:10:38;;;;;;;0.40;0.40;;;;;;;;;;5081182;28;20655;-83
2023/04/06 08:13:04;;;;;;;0.50;0.50;;;;;;;;;;5085567;28;20254;-83
2023/04/06 08:15:30;;;;;;;0.40;0.40;;;;;;;;;;5087622;28;20201;-82
2023/04/06 08:17:57;;;;;;;0.30;0.30;;;;;;;;;;5098806;28;20198;-83
2023/04/06 08:20:23;;;;;;;0.40;0.40;;;;;;;;;;5091741;28;20194;-86
2023/04/06 08:22:49;;;;;;;0.40;0.40;;;;;;;;;;5087016;28;20175;-81
2023/04/06 08:25:15;;;;;;;0.33;0.33;;;;;;;;;;5073211;28;20183;-83
2023/04/06 08:27:41;;;;;;;0.30;0.30;;;;;;;;;;5078187;28;20176;-83
2023/04/06 08:30:07;;;;;;;0.30;0.30;;;;;;;;;;5080484;28;20205;-84
2023/04/06 08:32:33;;;;;;;0.40;0.40;;;;;;;;;;5067106;28;20317;-83
2023/04/06 08:34:59;;;;;;;0.40;0.40;;;;;;;;;;5075749;28;20187;-83
2023/04/06 08:37:25;;;;;;;0.30;0.30;;;;;;;;;;5074343;28;20175;-81
2023/04/06 08:39:51;;;;;;;0.40;0.40;;;;;;;;;;5064195;28;20210;-82
2023/04/06 08:42:20;;;;;;;0.37;0.37;;;;;;;;;;5067015;28;20267;-83
2023/04/06 08:44:46;;;;;;;0.40;0.40;;;;;;;;;;5072359;28;20204;-84
2023/04/06 08:47:13;;;;;;;0.40;0.40;;;;;;;;;;5062762;28;20214;-83
2023/04/06 08:49:39;;;;;;;0.40;0.40;;;;;;;;;;5070544;28;20193;-84
2023/04/06 08:52:09;;;;;;;0.30;0.30;;;;;;;;;;5075503;28;20178;-85
2023/04/06 08:54:35;;;;;;;0.33;0.33;;;;;;;;;;5087834;28;20216;-85
2023/04/06 08:57:02;;;;;;;0.30;0.30;;;;;;;;;;5074812;28;20183;-86
2023/04/06 08:59:28;;;;;;;0.40;0.40;;;;;;;;;;5075531;28;20541;-84
2023/04/06 09:01:55;;;;;;;0.33;0.33;;;;;;;;;;5084800;28;20237;-84
2023/04/06 09:04:21;;;;;;;0.40;0.40;;;;;;;;;;5066617;28;20190;-85
2023/04/06 09:06:47;;;;;;;0.33;0.33;;;;;;;;;;5071814;28;20730;-84
2023/04/06 09:09:13;;;;;;;0.40;0.40;;;;;;;;;;5074776;28;20548;-82
2023/04/06 09:12:05;;;;;;;0.30;0.30;;;;;;;;;;5079669;28;20217;-84
2023/04/06 09:14:37;;;;;;;0.30;0.30;;;;;;;;;;5072985;28;20194;-82
2023/04/06 09:17:04;;;;;;;0.40;0.40;;;;;;;;;;5070984;28;20182;-84
2023/04/06 09:19:30;;;;;;;0.30;0.30;;;;;;;;;;5068250;28;20179;-84
2023/04/06 09:22:06;;;;;;;0.30;0.30;;;;;;;;;;5072161;28;20225;-83
2023/04/06 09:24:43;;;;;;;0.40;0.40;;;;;;;;;;5066987;28;20645;-84
2023/04/06 09:27:09;;;;;;;0.30;0.30;;;;;;;;;;5063366;28;20336;-83
2023/04/06 09:29:36;;;;;;;0.30;0.30;;;;;;;;;;5074533;28;20187;-85
2023/04/06 09:32:06;;;;;;;0.33;0.33;;;;;;;;;;5059113;28;20179;-86
2023/04/06 09:34:32;;;;;;;0.30;0.30;;;;;;;;;;5055045;28;20245;-87
2023/04/06 09:36:58;;;;;;;0.40;0.40;;;;;;;;;;5058039;28;20185;-87
2023/04/06 09:39:25;;;;;;;0.30;0.30;;;;;;;;;;5075386;28;20665;-85
2023/04/06 09:41:51;;;;;;;0.30;0.30;;;;;;;;;;5074689;28;20708;-87
2023/04/06 09:44:18;;;;;;;0.37;0.37;;;;;;;;;;5074763;28;20262;-87
2023/04/06 09:46:45;;;;;;;0.40;0.40;;;;;;;;;;5074985;28;20182;-86
2023/04/06 09:49:12;;;;;;;0.40;0.40;;;;;;;;;;5075600;28;20178;-88
2023/04/06 09:51:47;;;;;;;0.47;0.47;;;;;;;;;;5075462;28;20178;-87
2023/04/06 09:54:16;;;;;;;0.30;0.30;;;;;;;;;;5082969;28;20224;-88
2023/04/06 09:56:48;;;;;;;0.40;0.40;;;;;;;;;;5089559;28;20178;-86
2023/04/06 09:59:17;;;;;;;0.30;0.30;;;;;;;;;;5089532;28;20175;-87
2023/04/06 10:01:43;;;;;;;0.40;0.40;;;;;;;;;;5089821;28;20221;-87
2023/04/06 10:04:15;;;;;;;0.30;0.30;;;;;;;;;;5090269;28;20261;-86
2023/04/06 10:06:41;;;;;;;0.30;0.30;;;;;;;;;;5090560;28;20178;-86
2023/04/06 10:09:09;;;;;;;0.30;0.30;;;;;;;;;;5091055;28;20171;-88
2023/04/06 10:11:35;;;;;;;0.40;0.40;;;;;;;;;;5092583;28;20183;-87
2023/04/06 10:14:01;;;;;;;0.30;0.30;;;;;;;;;;5091229;28;20240;-86
2023/04/06 10:16:29;;;;;;;0.30;0.30;;;;;;;;;;5091119;28;20269;-86
2023/04/06 10:18:58;;;;;;;0.23;0.23;;;;;;;;;;5079399;28;20159;-87
2023/04/06 10:21:26;;;;;;;0.30;0.30;;;;;;;;;;5071833;28;20214;-87
2023/04/06 10:24:09;;;;;;;0.40;0.40;;;;;;;;;;5076379;28;20254;-91
2023/04/06 10:26:35;;;;;;;0.30;0.30;;;;;;;;;;5076578;28;20155;-88
2023/04/06 10:29:05;;;;;;;0.30;0.30;;;;;;;;;;5073067;28;20259;-89
2023/04/06 10:31:31;;;;;;;0.20;0.20;;;;;;;;;;5055971;28;20203;-88
2023/04/06 10:33:58;;;;;;;0.20;0.20;;;;;;;;;;5053772;28;20222;-89
2023/04/06 10:36:26;;;;;;;0.20;0.20;;;;;;;;;;5055830;28;20198;-87
2023/04/06 10:39:06;;;;;;;0.30;0.30;;;;;;;;;;5052253;28;20217;-87
2023/04/06 10:41:36;;;;;;;0.40;0.40;;;;;;;;;;5052165;28;20223;-87
2023/04/06 10:44:02;;;;;;;0.40;0.40;;;;;;;;;;5053390;28;20206;-87
2023/04/06 10:46:35;;;;;;;0.43;0.43;;;;;;;;;;5054838;28;20266;-89
2023/04/06 10:49:14;;;;;;;0.33;0.33;;;;;;;;;;5055112;28;20309;-89
2023/04/06 10:51:40;;;;;;;0.30;0.30;;;;;;;;;;5065651;28;20195;-85
2023/04/06 10:54:07;;;;;;;0.40;0.40;;;;;;;;;;5059405;28;20195;-84
2023/04/06 10:56:38;;;;;;;0.40;0.40;;;;;;;;;;5058104;28;20191;-85
2023/04/06 10:59:04;;;;;;;0.40;0.40;;;;;;;;;;5057860;28;20175;-83
2023/04/06 11:01:30;;;;;;;0.33;0.33;;;;;;;;;;5057358;28;20210;-84
2023/04/06 11:03:59;;;;;;;0.30;0.30;;;;;;;;;;5063695;28;20247;-83
2023/04/06 11:06:30;;;;;;;0.33;0.33;;;;;;;;;;5061513;28;20174;-84
2023/04/06 11:08:56;;;;;;;0.30;0.30;;;;;;;;;;5076347;28;20264;-83
2023/04/06 11:11:25;;;;;;;0.40;0.40;;;;;;;;;;5078232;28;20205;-84
2023/04/06 11:13:51;;;;;;;0.37;0.37;;;;;;;;;;5076674;28;20198;-85
2023/04/06 11:16:18;;;;;;;0.30;0.30;;;;;;;;;;5080078;28;20185;-84
2023/04/06 11:19:03;;;;;;;0.30;0.30;;;;;;;;;;5080628;28;20212;-84
2023/04/06 11:21:37;;;;;;;0.20;0.20;;;;;;;;;;5080969;28;20235;-84
2023/04/06 11:24:16;;;;;;;0.40;0.40;;;;;;;;;;5081248;28;20197;-84
2023/04/06 11:26:45;;;;;;;0.20;0.20;;;;;;;;;;5080798;28;20182;-82
2023/04/06 11:29:16;;;;;;;0.40;0.40;;;;;;;;;;5080822;28;20189;-83
2023/04/06 11:32:02;;;;;;;0.30;0.30;;;;;;;;;;5080909;28;20170;-83
2023/04/06 11:34:33;;;;;;;0.30;0.30;;;;;;;;;;5081441;28;20230;-83
2023/04/06 11:37:00;;;;;;;0.30;0.30;;;;;;;;;;5081319;28;20174;-83
2023/04/06 11:39:27;;;;;;;0.30;0.30;;;;;;;;;;5082763;28;20201;-83
2023/04/06 11:41:55;;;;;;;0.40;0.40;;;;;;;;;;5082105;28;20760;-84
2023/04/06 11:44:36;;;;;;;0.40;0.40;;;;;;;;;;5081078;28;20191;-84
2023/04/06 11:47:03;;;;;;;0.30;0.30;;;;;;;;;;5076103;28;20179;-82
2023/04/06 11:49:29;;;;;;;0.60;0.60;;;;;;;;;;5066224;28;20303;-83
2023/04/06 11:51:56;;;;;;;0.50;0.50;;;;;;;;;;5082280;28;20646;-86
2023/04/06 11:54:31;;;;;;;0.50;0.50;;;;;;;;;;5080104;28;20202;-86
2023/04/06 11:56:57;;;;;;;0.50;0.50;;;;;;;;;;5087988;28;20640;-86
2023/04/06 11:59:23;;;;;;;0.37;0.37;;;;;;;;;;5083420;28;20221;-83
2023/04/06 12:01:49;;;;;;;0.40;0.40;;;;;;;;;;5080197;28;20681;-83
2023/04/06 12:04:17;;;;;;;0.40;0.40;;;;;;;;;;5080254;28;20573;-83
2023/04/06 12:06:43;;;;;;;0.40;0.40;;;;;;;;;;5080846;28;20206;-84
2023/04/06 12:09:09;;;;;;;0.60;0.60;;;;;;;;;;5082779;28;20253;-84
2023/04/06 12:11:35;;;;;;;0.40;0.40;;;;;;;;;;5083031;28;20181;-83
2023/04/06 12:14:04;;;;;;;0.50;0.50;;;;;;;;;;5084191;28;20235;-84
2023/04/06 12:16:30;;;;;;;0.40;0.40;;;;;;;;;;5083044;28;20312;-84
2023/04/06 12:18:56;;;;;;;0.50;0.50;;;;;;;;;;5083108;28;20181;-85
2023/04/06 12:21:22;;;;;;;0.47;0.47;;;;;;;;;;5081297;28;20218;-83
2023/04/06 12:23:48;;;;;;;0.40;0.40;;;;;;;;;;5079924;28;20546;-83
2023/04/06 12:26:14;;;;;;;0.40;0.40;;;;;;;;;;5078295;28;20174;-85
2023/04/06 12:28:40;;;;;;;0.40;0.40;;;;;;;;;;5069914;28;20175;-85
2023/04/06 12:31:06;;;;;;;0.50;0.50;;;;;;;;;;5071906;28;20175;-85
2023/04/06 12:33:32;;;;;;;0.50;0.50;;;;;;;;;;5065741;28;20678;-86
2023/04/06 12:35:58;;;;;;;0.30;0.30;;;;;;;;;;5081843;28;20179;-84
2023/04/06 12:38:24;;;;;;;0.40;0.40;;;;;;;;;;5076284;28;20183;-83
2023/04/06 12:40:50;;;;;;;0.40;0.40;;;;;;;;;;5080005;28;20238;-87
2023/04/06 12:43:16;;;;;;;0.40;0.40;;;;;;;;;;5080583;28;20202;-85
2023/04/06 12:45:42;;;;;;;0.40;0.40;;;;;;;;;;5078807;28;20618;-85
2023/04/06 12:48:08;;;;;;;0.30;0.30;;;;;;;;;;5074101;28;20178;-81
2023/04/06 12:50:34;;;;;;;0.40;0.40;;;;;;;;;;5079545;28;20170;-82
2023/04/06 12:53:00;;;;;;;0.40;0.40;;;;;;;;;;5075936;28;20206;-82
2023/04/06 12:55:27;;;;;;;0.40;0.40;;;;;;;;;;5060844;28;20171;-85
2023/04/06 12:57:54;;;;;;;0.40;0.40;;;;;;;;;;5069336;28;20198;-83
2023/04/06 13:00:20;;;;;;;0.30;0.30;;;;;;;;;;5067984;28;20175;-84
2023/04/06 13:02:46;;;;;;;0.40;0.40;;;;;;;;;;5059930;28;20660;-83
2023/04/06 13:05:18;;;;;;;0.43;0.43;;;;;;;;;;5073255;28;20177;-83
2023/04/06 13:07:44;;;;;;;0.40;0.40;;;;;;;;;;5059051;28;20187;-81
2023/04/06 13:10:10;;;;;;;0.40;0.40;;;;;;;;;;5074774;28;20179;-82
2023/04/06 13:12:36;;;;;;;0.30;0.30;;;;;;;;;;5064572;28;20533;-81
2023/04/06 13:15:02;;;;;;;0.60;0.60;;;;;;;;;;5062565;28;20241;-81
2023/04/06 13:17:28;;;;;;;0.40;0.40;;;;;;;;;;5059208;28;20186;-83
2023/04/06 13:19:54;;;;;;;0.40;0.40;;;;;;;;;;5072841;28;20178;-85
2023/04/06 13:22:20;;;;;;;0.40;0.40;;;;;;;;;;5078027;28;20245;-84
2023/04/06 13:24:46;;;;;;;0.40;0.40;;;;;;;;;;5072046;28;20198;-84
2023/04/06 13:27:12;;;;;;;0.40;0.40;;;;;;;;;;5075899;28;20253;-84
2023/04/06 13:29:38;;;;;;;0.40;0.40;;;;;;;;;;5077091;28;20188;-83
2023/04/06 13:32:04;;;;;;;0.50;0.50;;;;;;;;;;5069973;28;20248;-83
2023/04/06 13:34:31;;;;;;;0.40;0.40;;;;;;;;;;5068187;28;20194;-83
2023/04/06 13:36:57;;;;;;;0.40;0.40;;;;;;;;;;5078502;28;20231;-83
2023/04/06 13:39:23;;;;;;;0.40;0.40;;;;;;;;;;5077781;28;20194;-84
2023/04/06 13:41:49;;;;;;;0.53;0.53;;;;;;;;;;5080348;28;20210;-83
2023/04/06 13:44:15;;;;;;;0.40;0.40;;;;;;;;;;5079007;28;20194;-84
2023/04/06 13:46:41;;;;;;;0.50;0.50;;;;;;;;;;5078704;28;20514;-82
2023/04/06 13:49:07;;;;;;;0.33;0.33;;;;;;;;;;5078615;28;20189;-82
2023/04/06 13:51:33;;;;;;;0.40;0.40;;;;;;;;;;5078610;28;20181;-81
2023/04/06 13:53:59;;;;;;;0.40;0.40;;;;;;;;;;5073465;28;20248;-82
2023/04/06 13:56:25;;;;;;;0.40;0.40;;;;;;;;;;5078123;28;20208;-82
2023/04/06 13:58:55;;;;;;;0.60;0.60;;;;;;;;;;5078030;28;20185;-82
2023/04/06 14:01:21;;;;;;;0.50;0.50;;;;;;;;;;5079088;28;20210;-81
2023/04/06 14:03:48;;;;;;;0.50;0.50;;;;;;;;;;5078453;28;20221;-85
2023/04/06 14:06:14;;;;;;;0.50;0.50;;;;;;;;;;5086910;28;20190;-83
2023/04/06 14:08:40;;;;;;;0.53;0.53;;;;;;;;;;5091388;28;20174;-83
2023/04/06 14:11:08;;;;;;;0.40;0.40;;;;;;;;;;5071686;28;20194;-84
2023/04/06 14:13:34;;;;;;;0.57;0.57;;;;;;;;;;5057616;28;20285;-86
2023/04/06 14:16:00;;;;;;;0.40;0.40;;;;;;;;;;5057301;28;20646;-85
2023/04/06 14:18:30;;;;;;;0.50;0.50;;;;;;;;;;5057206;28;20179;-87
2023/04/06 14:20:57;;;;;;;0.47;0.47;;;;;;;;;;5075772;28;20205;-85
2023/04/06 14:23:25;;;;;;;0.50;0.50;;;;;;;;;;5076998;28;20201;-84
2023/04/06 14:25:51;;;;;;;0.40;0.40;;;;;;;;;;5075877;28;20178;-82
2023/04/06 14:28:17;;;;;;;0.30;0.30;;;;;;;;;;5075783;28;20622;-84
2023/04/06 14:30:43;;;;;;;0.40;0.40;;;;;;;;;;5075950;28;20531;-83
2023/04/06 14:33:11;;;;;;;0.40;0.40;;;;;;;;;;5055615;28;20187;-82
2023/04/06 14:35:38;;;;;;;0.50;0.50;;;;;;;;;;5055891;28;20167;-85
2023/04/06 14:38:05;;;;;;;0.40;0.40;;;;;;;;;;5055470;28;20194;-83
2023/04/06 14:40:31;;;;;;;0.40;0.40;;;;;;;;;;5056222;28;20642;-82